Time;durP1;ratioP1;P1;durP2;ratioP2;P2;SDS_P1;SDS_P2;PMS_P1;PMS_P2;Temp;Humidity;BMP_temperature;BMP_pressure;BME280_temperature;BME280_humidity;BME280_pressure;Samples;Min_cycle;Max_cycle;Signal;HPM_P1;HPM_P2
2023/08/01 00:02:22;;;;;;;4.95;4.75;;;;;;;16.85;100.00;99592.44;6205032;23;20668;-70
2023/08/01 00:04:48;;;;;;;4.82;4.63;;;;;;;16.40;100.00;99519.03;6156618;23;20034;-69
2023/08/01 00:07:14;;;;;;;5.00;4.80;;;;;;;16.83;100.00;99594.41;6206875;23;20695;-70
2023/08/01 00:09:41;;;;;;;4.95;4.65;;;;;;;16.86;100.00;99583.53;6176159;23;20096;-70
2023/08/01 00:12:07;;;;;;;5.45;5.15;;;;;;;16.83;100.00;99583.00;6190354;23;20098;-70
2023/08/01 00:14:35;;;;;;;5.00;4.80;;;;;;;16.70;100.00;99565.59;6204581;23;20026;-70
2023/08/01 00:17:02;;;;;;;5.00;4.80;;;;;;;16.85;100.00;99578.38;6175239;23;20537;-71
2023/08/01 00:19:29;;;;;;;5.00;4.80;;;;;;;16.83;100.00;99520.22;6199383;23;20024;-70
2023/08/01 00:21:55;;;;;;;5.07;4.80;;;;;;;16.21;100.00;99434.41;6204946;23;20015;-69
2023/08/01 00:24:21;;;;;;;6.25;5.00;;;;;;;15.33;100.00;99302.50;6200259;23;20645;-70
2023/08/01 00:26:51;;;;;;;4.88;4.68;;;;;;;16.73;100.00;99559.16;6176156;23;20024;-70
2023/08/01 00:29:17;;;;;;;5.97;5.60;;;;;;;16.80;100.00;99570.84;6203188;23;20027;-71
2023/08/01 00:31:44;;;;;;;4.90;4.70;;;;;;;16.79;100.00;99576.28;6204674;23;20358;-70
2023/08/01 00:34:10;;;;;;;6.57;6.28;;;;;;;16.65;100.00;99546.66;6198091;23;20089;-70
2023/08/01 00:36:37;;;;;;;4.97;4.78;;;;;;;16.45;100.00;99522.06;6185885;23;20020;-70
2023/08/01 00:39:04;;;;;;;5.22;4.93;;;;;;;16.77;100.00;99559.69;6198978;23;20032;-70
2023/08/01 00:41:30;;;;;;;4.90;4.70;;;;;;;16.72;100.00;99531.84;6181690;23;20036;-70
2023/08/01 00:43:56;;;;;;;5.00;4.80;;;;;;;16.79;100.00;99541.84;6201627;23;20034;-70
2023/08/01 00:46:24;;;;;;;5.00;4.60;;;;;;;16.79;100.00;99524.13;6179791;23;20004;-70
2023/08/01 00:48:50;;;;;;;4.93;4.63;;;;;;;16.32;100.00;99445.63;6203428;23;20095;-70
2023/08/01 00:51:18;;;;;;;4.90;4.70;;;;;;;16.55;100.00;99493.72;6200123;23;20633;-70
2023/08/01 00:53:46;;;;;;;4.82;4.63;;;;;;;16.42;100.00;99463.31;6174880;23;20680;-70
2023/08/01 00:56:13;;;;;;;5.30;5.00;;;;;;;16.57;100.00;99479.50;6199985;23;20508;-70
2023/08/01 00:58:39;;;;;;;4.95;4.75;;;;;;;16.81;100.00;99526.63;6193903;23;20084;-70
2023/08/01 01:01:05;;;;;;;4.95;4.75;;;;;;;16.60;100.00;99488.00;6200476;23;20024;-70
2023/08/01 01:03:32;;;;;;;9.23;4.70;;;;;;;16.61;100.00;99516.13;6202430;23;20097;-70
2023/08/01 01:06:17;;;;;;;4.95;4.75;;;;;;;16.48;100.00;99491.84;6177640;23;20033;-70
2023/08/01 01:08:44;;;;;;;4.95;4.75;;;;;;;16.98;100.00;99556.81;6171416;23;20102;-70
2023/08/01 01:11:11;;;;;;;5.28;5.07;;;;;;;16.65;100.00;99501.63;6170904;23;20024;-70
2023/08/01 01:13:37;;;;;;;5.75;5.00;;;;;;;16.63;100.00;99492.97;6201338;23;21371;-70
2023/08/01 01:16:04;;;;;;;5.13;4.82;;;;;;;16.94;100.00;99535.91;6196194;23;20047;-71
2023/08/01 01:18:30;;;;;;;4.78;4.57;;;;;;;16.83;100.00;99535.28;6202136;23;20048;-70
2023/08/01 01:20:56;;;;;;;4.90;4.70;;;;;;;16.65;100.00;99488.38;6171123;23;20583;-70
2023/08/01 01:23:25;;;;;;;5.00;4.80;;;;;;;16.62;100.00;99482.53;6197862;23;20028;-71
2023/08/01 01:25:53;;;;;;;5.15;4.93;;;;;;;16.79;100.00;99510.88;6198019;23;20026;-70
2023/08/01 01:28:20;;;;;;;5.20;4.90;;;;;;;16.40;100.00;99454.63;6199880;23;20019;-70
2023/08/01 01:30:49;;;;;;;5.20;4.93;;;;;;;16.55;100.00;99487.59;6197693;23;20075;-72
2023/08/01 01:33:16;;;;;;;4.82;4.63;;;;;;;16.81;100.00;99521.34;6172892;23;20012;-70
2023/08/01 01:35:42;;;;;;;4.70;4.50;;;;;;;16.63;100.00;99519.47;6189364;23;20563;-70
2023/08/01 01:38:08;;;;;;;4.90;4.70;;;;;;;16.74;100.00;99516.63;6175424;23;20356;-70
2023/08/01 01:40:35;;;;;;;4.90;4.70;;;;;;;15.83;100.00;99357.72;6196251;23;20004;-71
2023/08/01 01:43:01;;;;;;;5.18;4.90;;;;;;;16.71;100.00;99469.22;6200487;23;20099;-70
2023/08/01 01:45:28;;;;;;;4.82;4.63;;;;;;;16.39;100.00;99447.69;6196839;23;20036;-70
2023/08/01 01:47:57;;;;;;;5.15;4.95;;;;;;;16.46;100.00;99477.91;6182684;23;20035;-70
2023/08/01 01:50:23;;;;;;;5.00;4.80;;;;;;;16.20;100.00;99446.81;6194963;23;20061;-70
2023/08/01 01:52:52;;;;;;;5.00;4.80;;;;;;;16.32;100.00;99472.13;6196587;23;20022;-70
2023/08/01 01:55:18;;;;;;;4.95;4.75;;;;;;;16.62;100.00;99512.53;6202751;23;20023;-71
2023/08/01 01:57:45;;;;;;;4.82;4.63;;;;;;;16.42;100.00;99487.97;6199837;23;20091;-71
2023/08/01 02:00:12;;;;;;;5.43;5.03;;;;;;;16.70;100.00;99506.50;6199677;23;20023;-70
2023/08/01 02:02:39;;;;;;;4.95;4.75;;;;;;;16.41;100.00;99478.34;6175893;23;20024;-70
2023/08/01 02:05:05;;;;;;;9.90;4.93;;;;;;;16.58;100.00;99483.81;6199658;23;20035;-70
2023/08/01 02:07:33;;;;;;;5.10;4.90;;;;;;;16.63;100.00;99495.63;6200439;23;20102;-70
2023/08/01 02:10:01;;;;;;;5.10;4.90;;;;;;;16.60;100.00;99481.84;6173352;23;20028;-69
2023/08/01 02:12:27;;;;;;;5.43;5.13;;;;;;;16.48;100.00;99473.31;6179329;23;20031;-70
2023/08/01 02:14:54;;;;;;;5.18;4.88;;;;;;;16.54;100.00;99488.59;6168874;23;20095;-69
2023/08/01 02:17:20;;;;;;;4.97;4.78;;;;;;;15.89;100.00;99404.75;6172964;23;20645;-70
2023/08/01 02:19:47;;;;;;;5.10;4.90;;;;;;;16.51;100.00;99491.53;6199965;23;20023;-70
2023/08/01 02:22:13;;;;;;;4.90;4.70;;;;;;;15.59;100.00;99352.91;6202394;23;20834;-70
2023/08/01 02:24:40;;;;;;;5.30;4.82;;;;;;;16.46;100.00;99491.16;6200649;23;20026;-70
2023/08/01 02:27:06;;;;;;;5.18;4.88;;;;;;;16.42;100.00;99485.31;6172539;23;20062;-72
2023/08/01 02:29:32;;;;;;;5.30;5.00;;;;;;;15.87;100.00;99398.75;6174000;23;20463;-70
2023/08/01 02:31:59;;;;;;;5.60;5.30;;;;;;;15.94;100.00;99418.38;6194310;23;20063;-70
2023/08/01 02:34:25;;;;;;;5.50;5.20;;;;;;;13.77;100.00;99067.88;6174350;23;20042;-70
2023/08/01 02:36:53;;;;;;;5.40;5.10;;;;;;;16.40;100.00;99491.72;6174848;23;20041;-70
2023/08/01 02:39:19;;;;;;;5.13;4.93;;;;;;;15.79;100.00;99403.13;6172817;23;20075;-70
2023/08/01 02:41:45;;;;;;;5.20;5.00;;;;;;;16.34;100.00;99499.28;6198131;23;20024;-70
2023/08/01 02:44:12;;;;;;;5.35;5.05;;;;;;;16.33;100.00;99497.59;6169174;23;21657;-70
2023/08/01 02:46:39;;;;;;;5.68;5.28;;;;;;;16.35;100.00;99494.81;6173439;23;20043;-70
2023/08/01 02:49:06;;;;;;;5.53;5.22;;;;;;;16.34;100.00;99503.75;6201898;23;20075;-69
2023/08/01 02:51:32;;;;;;;5.60;5.13;;;;;;;16.32;100.00;99501.25;6202169;23;20028;-70
2023/08/01 02:53:59;;;;;;;5.75;5.40;;;;;;;16.07;100.00;99470.97;6145499;23;20024;-70
2023/08/01 02:56:27;;;;;;;5.72;5.32;;;;;;;16.16;100.00;99477.22;6185985;23;20094;-69
2023/08/01 02:58:55;;;;;;;5.40;5.13;;;;;;;16.33;100.00;99484.34;6177860;23;20057;-70
2023/08/01 03:01:21;;;;;;;6.05;5.68;;;;;;;16.27;100.00;99473.53;6202767;23;20043;-70
2023/08/01 03:03:48;;;;;;;5.90;5.60;;;;;;;16.01;100.00;99445.09;6172313;23;20028;-70
2023/08/01 03:06:15;;;;;;;5.60;5.30;;;;;;;15.39;100.00;99349.50;6171980;23;20016;-70
2023/08/01 03:08:42;;;;;;;6.22;5.82;;;;;;;16.09;100.00;99468.19;6200997;23;20040;-71
2023/08/01 03:11:08;;;;;;;6.55;5.78;;;;;;;16.07;100.00;99467.50;6177999;23;20091;-72
2023/08/01 03:13:35;;;;;;;6.90;5.90;;;;;;;15.99;100.00;99489.38;6203523;23;20016;-70
2023/08/01 03:16:02;;;;;;;6.82;6.32;;;;;;;16.08;100.00;99485.88;6194123;23;20091;-71
2023/08/01 03:18:29;;;;;;;6.63;5.95;;;;;;;16.04;100.00;99478.38;6202918;23;20088;-69
2023/08/01 03:20:55;;;;;;;14.52;6.50;;;;;;;15.69;100.00;99448.09;6201035;23;20481;-69
2023/08/01 03:23:22;;;;;;;6.45;5.95;;;;;;;15.98;100.00;99471.03;6175559;23;20021;-69
2023/08/01 03:25:48;;;;;;;6.10;5.70;;;;;;;15.92;100.00;99483.84;6202065;23;20012;-70
2023/08/01 03:28:14;;;;;;;6.22;5.82;;;;;;;15.80;100.00;99495.56;6202308;23;20045;-69
2023/08/01 03:30:41;;;;;;;6.28;5.88;;;;;;;15.42;100.00;99427.72;6201515;23;20516;-69
2023/08/01 03:33:10;;;;;;;6.95;6.18;;;;;;;15.85;100.00;99495.97;6154449;23;20088;-70
2023/08/01 03:35:36;;;;;;;6.82;6.40;;;;;;;14.90;100.00;99339.06;6176594;23;20497;-70
2023/08/01 03:38:03;;;;;;;7.20;6.60;;;;;;;15.55;100.00;99449.38;6180884;23;20436;-69
2023/08/01 03:40:29;;;;;;;7.28;6.78;;;;;;;15.51;100.00;99474.44;6201415;23;20043;-69
2023/08/01 03:42:55;;;;;;;6.93;6.40;;;;;;;15.67;100.00;99503.78;6159224;23;20039;-69
2023/08/01 03:45:22;;;;;;;7.57;6.97;;;;;;;15.32;100.00;99454.16;6194251;23;20401;-70
2023/08/01 03:47:48;;;;;;;7.28;6.70;;;;;;;15.51;100.00;99509.63;6177852;23;20091;-70
2023/08/01 03:50:15;;;;;;;7.60;7.00;;;;;;;14.99;100.00;99439.56;6202019;23;20328;-70
2023/08/01 03:52:41;;;;;;;7.53;6.82;;;;;;;15.31;100.00;99506.16;6199784;23;20102;-70
2023/08/01 03:55:08;;;;;;;8.27;7.47;;;;;;;14.59;100.00;99408.84;6201836;23;20018;-71
2023/08/01 03:57:35;;;;;;;9.43;7.45;;;;;;;15.21;100.00;99515.91;6183775;23;20087;-71
2023/08/01 04:00:02;;;;;;;8.98;7.90;;;;;;;15.14;100.00;99515.66;6169699;23;20024;-71
2023/08/01 04:02:29;;;;;;;9.10;8.30;;;;;;;15.11;100.00;99520.38;6175201;23;20111;-70
2023/08/01 04:04:55;;;;;;;9.00;8.20;;;;;;;14.80;100.00;99480.84;6200889;23;20399;-70
2023/08/01 04:07:22;;;;;;;8.45;7.68;;;;;;;14.66;100.00;99479.44;6172345;23;20070;-70
2023/08/01 04:09:48;;;;;;;8.50;7.68;;;;;;;14.70;100.00;99478.19;6196004;23;20517;-70
2023/08/01 04:12:14;;;;;;;8.38;7.57;;;;;;;14.42;100.00;99439.34;6201109;23;20536;-71
2023/08/01 04:14:42;;;;;;;10.63;7.60;;;;;;;14.44;100.00;99453.25;6201988;23;20039;-70
2023/08/01 04:17:08;;;;;;;8.90;7.85;;;;;;;14.56;100.00;99475.94;6202009;23;20036;-70
2023/08/01 04:19:34;;;;;;;9.05;7.50;;;;;;;14.42;100.00;99466.56;6200288;23;20083;-70
2023/08/01 04:22:01;;;;;;;9.38;8.45;;;;;;;14.85;100.00;99546.47;6199483;22;20759;-70
2023/08/01 04:24:29;;;;;;;10.63;7.57;;;;;;;14.86;100.00;99542.88;6184103;23;20025;-70
2023/08/01 04:26:56;;;;;;;10.95;8.20;;;;;;;13.83;100.00;99377.66;6205648;23;20024;-70
2023/08/01 04:29:22;;;;;;;8.50;7.63;;;;;;;14.83;100.00;99532.56;6178110;23;20544;-71
2023/08/01 04:31:48;;;;;;;9.00;8.10;;;;;;;14.69;100.00;99510.88;6206234;23;20020;-70
2023/08/01 04:34:15;;;;;;;9.27;7.53;;;;;;;14.62;100.00;99499.16;6199465;23;20020;-70
2023/08/01 04:36:41;;;;;;;12.02;8.15;;;;;;;14.11;100.00;99434.09;6203260;23;20505;-70
2023/08/01 04:39:08;;;;;;;7.88;7.07;;;;;;;14.70;100.00;99507.25;6198092;23;20028;-71
2023/08/01 04:41:35;;;;;;;17.08;8.13;;;;;;;14.74;100.00;99497.25;6207205;23;20355;-70
2023/08/01 04:44:01;;;;;;;7.43;6.82;;;;;;;14.63;100.00;99482.34;6200937;23;20641;-71
2023/08/01 04:46:27;;;;;;;8.52;7.35;;;;;;;14.98;100.00;99527.75;6203551;23;20091;-70
2023/08/01 04:48:54;;;;;;;7.20;6.60;;;;;;;14.88;100.00;99496.03;6201174;23;20077;-69
2023/08/01 04:51:20;;;;;;;8.18;6.60;;;;;;;14.91;100.00;99506.31;6201835;23;20093;-70
2023/08/01 04:53:47;;;;;;;7.75;7.05;;;;;;;15.19;100.00;99532.91;6204340;23;20016;-70
2023/08/01 04:56:13;;;;;;;6.95;6.28;;;;;;;15.20;100.00;99530.13;6197315;23;20008;-70
2023/08/01 04:58:39;;;;;;;7.50;6.80;;;;;;;14.76;100.00;99464.44;6171034;23;20024;-70
2023/08/01 05:01:06;;;;;;;8.50;6.60;;;;;;;14.89;100.00;99481.84;6180383;23;20019;-70
2023/08/01 05:03:32;;;;;;;7.90;7.10;;;;;;;14.84;100.00;99476.97;6198479;23;20527;-70
2023/08/01 05:05:59;;;;;;;7.47;6.88;;;;;;;15.14;100.00;99522.75;6166608;23;20017;-70
2023/08/01 05:08:26;;;;;;;7.00;6.50;;;;;;;15.21;100.00;99521.19;6198362;23;20028;-71
2023/08/01 05:10:52;;;;;;;11.15;7.18;;;;;;;14.08;100.00;99342.06;6186491;23;20036;-70
2023/08/01 05:13:19;;;;;;;12.27;7.07;;;;;;;14.92;100.00;99477.13;6196705;23;20036;-70
2023/08/01 05:15:47;;;;;;;6.70;6.20;;;;;;;15.04;100.00;99498.97;6175193;23;20024;-70
2023/08/01 05:18:15;;;;;;;7.22;6.63;;;;;;;15.20;100.00;99521.38;6155169;23;20085;-70
2023/08/01 05:20:42;;;;;;;7.38;6.60;;;;;;;14.98;100.00;99462.53;6174084;23;20028;-70
2023/08/01 05:23:08;;;;;;;9.70;6.78;;;;;;;15.18;100.00;99462.53;6195240;23;20347;-70
2023/08/01 05:25:35;;;;;;;7.72;6.85;;;;;;;15.63;100.00;99475.94;6198415;23;20015;-71
2023/08/01 05:28:01;;;;;;;6.85;6.22;;;;;;;16.02;100.00;99509.44;6198335;23;20048;-70
2023/08/01 05:30:28;;;;;;;7.38;6.68;;;;;;;16.01;100.00;99497.19;6203377;23;20079;-70
2023/08/01 05:32:54;;;;;;;10.30;6.63;;;;;;;15.68;100.00;99449.91;6204397;23;20466;-71
2023/08/01 05:35:21;;;;;;;6.95;6.28;;;;;;;15.70;100.00;99457.72;6202723;23;20056;-70
2023/08/01 05:37:48;;;;;;;7.93;6.35;;;;;;;15.55;100.00;99437.00;6178537;23;20016;-72
2023/08/01 05:40:14;;;;;;;7.90;6.78;;;;;;;15.64;100.00;99463.56;6199959;23;20683;-70
2023/08/01 05:42:40;;;;;;;6.68;6.18;;;;;;;15.74;100.00;99489.03;6172498;23;20490;-70
2023/08/01 05:45:08;;;;;;;6.97;6.32;;;;;;;15.82;100.00;99500.72;6194091;23;20035;-70
2023/08/01 05:47:36;;;;;;;8.02;7.07;;;;;;;15.81;100.00;99502.53;6171268;23;20039;-70
2023/08/01 05:50:03;;;;;;;7.45;6.72;;;;;;;15.76;100.00;99491.56;6198047;23;20058;-71
2023/08/01 05:52:30;;;;;;;8.50;7.18;;;;;;;15.81;100.00;99507.81;6194069;23;20700;-71
2023/08/01 05:54:56;;;;;;;8.75;6.60;;;;;;;15.47;100.00;99444.78;6201984;23;20028;-70
2023/08/01 05:57:22;;;;;;;7.10;6.30;;;;;;;15.81;100.00;99505.16;6143080;23;20077;-70
2023/08/01 05:59:51;;;;;;;7.78;6.13;;;;;;;15.88;100.00;99508.09;6197209;23;20080;-70
2023/08/01 06:02:20;;;;;;;10.95;6.68;;;;;;;15.50;100.00;99433.94;6198954;23;20022;-70
2023/08/01 06:04:46;;;;;;;8.30;6.43;;;;;;;15.61;100.00;99448.81;6195937;23;20020;-70
2023/08/01 06:07:13;;;;;;;7.28;6.57;;;;;;;16.01;100.00;99495.34;6173158;23;20015;-70
2023/08/01 06:09:39;;;;;;;6.68;6.18;;;;;;;16.12;100.00;99486.44;6199738;23;20619;-70
2023/08/01 06:12:06;;;;;;;8.40;6.70;;;;;;;16.23;100.00;99486.22;6152128;23;20008;-70
2023/08/01 06:14:32;;;;;;;9.32;6.78;;;;;;;16.35;100.00;99474.44;6195648;23;20107;-70
2023/08/01 06:16:59;;;;;;;6.65;6.05;;;;;;;16.63;100.00;99479.75;6167058;23;20097;-71
2023/08/01 06:19:25;;;;;;;9.10;6.80;;;;;;;16.48;100.00;99418.50;6200279;23;20039;-70
2023/08/01 06:21:52;;;;;;;9.07;6.30;;;;;;;16.67;100.00;99411.41;6198105;23;20465;-70
2023/08/01 06:24:18;;;;;;;6.95;6.30;;;;;;;16.89;100.00;99421.56;6178867;23;20032;-70
2023/08/01 06:26:45;;;;;;;6.57;5.97;;;;;;;17.12;100.00;99411.34;6200182;23;20040;-70
2023/08/01 06:29:11;;;;;;;7.78;6.68;;;;;;;17.13;100.00;99373.22;6203982;23;20032;-70
2023/08/01 06:31:38;;;;;;;7.00;6.50;;;;;;;17.42;100.00;99382.72;6199697;23;20038;-70
2023/08/01 06:34:04;;;;;;;7.00;6.28;;;;;;;17.63;100.00;99384.16;6197323;23;20027;-71
2023/08/01 06:36:32;;;;;;;7.28;6.25;;;;;;;17.59;100.00;99362.41;6201244;23;20027;-70
2023/08/01 06:38:58;;;;;;;7.53;6.78;;;;;;;17.77;100.00;99356.19;6177764;23;20079;-70
2023/08/01 06:41:25;;;;;;;7.15;6.55;;;;;;;17.67;100.00;99290.81;6196502;22;20092;-71
2023/08/01 06:43:51;;;;;;;6.88;6.30;;;;;;;17.85;100.00;99314.63;6206759;23;20032;-71
2023/08/01 06:46:18;;;;;;;7.32;6.60;;;;;;;17.94;100.00;99328.72;6172219;23;20024;-70
2023/08/01 06:48:44;;;;;;;6.53;6.07;;;;;;;16.87;100.00;99136.53;6206585;23;20029;-68
2023/08/01 06:51:11;;;;;;;12.30;6.55;;;;;;;17.80;100.00;99261.19;6174148;23;20008;-70
2023/08/01 06:53:37;;;;;;;6.78;6.28;;;;;;;18.40;100.00;99318.56;6181776;23;20057;-70
2023/08/01 06:56:04;;;;;;;9.00;6.82;;;;;;;18.76;100.00;99315.56;6175249;23;20013;-69
2023/08/01 06:58:30;;;;;;;7.35;6.75;;;;;;;18.86;99.24;99259.59;6177875;23;20029;-69
2023/08/01 07:00:57;;;;;;;6.90;6.28;;;;;;;18.34;96.97;99203.19;6204116;22;20314;-72
2023/08/01 07:03:23;;;;;;;7.03;6.43;;;;;;;18.22;100.00;99257.63;6189677;23;20024;-70
2023/08/01 07:05:50;;;;;;;7.25;6.55;;;;;;;18.20;100.00;99256.97;6172674;23;20023;-69
2023/08/01 07:08:18;;;;;;;7.05;6.35;;;;;;;18.44;98.15;99234.03;6204820;23;20028;-69
2023/08/01 07:10:45;;;;;;;7.10;6.55;;;;;;;18.43;97.59;99213.81;6203261;23;21171;-70
2023/08/01 07:13:11;;;;;;;10.27;6.70;;;;;;;18.91;96.29;99238.69;6173011;23;20017;-70
2023/08/01 07:15:38;;;;;;;6.95;6.45;;;;;;;19.06;93.29;99197.09;6202506;23;20020;-71
2023/08/01 07:18:04;;;;;;;7.47;6.80;;;;;;;19.58;92.30;99208.16;6200335;23;20461;-71
2023/08/01 07:20:31;;;;;;;10.48;7.03;;;;;;;19.19;89.35;99121.25;6179372;23;20029;-70
2023/08/01 07:22:57;;;;;;;7.05;6.55;;;;;;;19.51;88.17;99145.00;6202019;23;20339;-70
2023/08/01 07:25:25;;;;;;;6.80;6.35;;;;;;;19.09;88.43;99110.84;6176832;23;20093;-70
2023/08/01 07:27:51;;;;;;;7.47;6.45;;;;;;;18.69;89.03;99094.84;6202119;23;20023;-70
2023/08/01 07:30:18;;;;;;;8.68;6.80;;;;;;;18.61;91.17;99148.03;6178093;23;20039;-69
2023/08/01 07:32:44;;;;;;;7.25;6.60;;;;;;;18.61;92.46;99179.91;6200914;23;20096;-71
2023/08/01 07:35:11;;;;;;;7.35;6.70;;;;;;;18.22;92.26;99155.88;6197237;23;20016;-70
2023/08/01 07:37:37;;;;;;;6.95;6.45;;;;;;;18.21;93.29;99178.13;6200854;23;20036;-70
2023/08/01 07:40:07;;;;;;;8.23;7.13;;;;;;;18.19;93.32;99186.25;6200662;23;20023;-69
2023/08/01 07:42:33;;;;;;;7.60;6.90;;;;;;;17.68;93.41;99120.03;6195077;23;20020;-70
2023/08/01 07:45:00;;;;;;;7.68;6.97;;;;;;;18.21;93.66;99200.19;6169053;23;20032;-69
2023/08/01 07:47:26;;;;;;;7.80;6.85;;;;;;;18.08;95.26;99186.56;6173625;23;20564;-70
2023/08/01 07:49:53;;;;;;;7.25;6.60;;;;;;;18.19;92.77;99141.13;6202499;23;20023;-69
2023/08/01 07:52:19;;;;;;;6.95;6.40;;;;;;;17.81;92.09;99050.53;6204533;23;20020;-70
2023/08/01 07:54:46;;;;;;;7.15;6.57;;;;;;;18.56;91.02;99120.28;6201983;23;20091;-69
2023/08/01 07:57:15;;;;;;;7.15;6.55;;;;;;;18.86;88.64;99137.34;6176468;23;20020;-69
2023/08/01 07:59:41;;;;;;;7.35;6.80;;;;;;;18.79;88.85;99146.97;6199544;23;20030;-69
2023/08/01 08:02:08;;;;;;;7.03;6.43;;;;;;;18.49;88.42;99091.75;6200603;23;20103;-69
2023/08/01 08:04:34;;;;;;;8.20;7.45;;;;;;;18.66;89.16;99150.16;6202446;23;20049;-70
2023/08/01 08:07:01;;;;;;;6.72;6.13;;;;;;;18.43;89.20;99110.22;6203229;22;20026;-70
2023/08/01 08:09:27;;;;;;;7.25;6.57;;;;;;;18.63;89.04;99148.69;6173654;23;20030;-69
2023/08/01 08:11:54;;;;;;;6.78;6.28;;;;;;;18.66;89.30;99160.78;6203811;23;20025;-69
2023/08/01 08:14:21;;;;;;;10.02;6.75;;;;;;;18.52;89.87;99168.47;6201099;23;20090;-69
2023/08/01 08:16:48;;;;;;;7.15;6.53;;;;;;;18.27;90.59;99138.44;6183606;23;20028;-69
2023/08/01 08:19:14;;;;;;;6.45;6.05;;;;;;;18.78;89.50;99170.06;6199293;23;20038;-69
2023/08/01 08:21:41;;;;;;;7.32;6.63;;;;;;;18.80;87.22;99109.63;6168239;23;20398;-69
2023/08/01 08:24:07;;;;;;;7.97;6.68;;;;;;;18.78;85.40;99066.41;6197086;23;20055;-69
2023/08/01 08:26:37;;;;;;;7.00;6.40;;;;;;;18.72;85.29;99067.94;6200680;23;20028;-71
2023/08/01 08:29:04;;;;;;;6.60;6.10;;;;;;;18.14;87.81;99080.56;6202387;23;20028;-70
2023/08/01 08:31:31;;;;;;;7.13;6.32;;;;;;;18.44;89.20;99149.03;6170751;23;20024;-72
2023/08/01 08:33:57;;;;;;;7.00;6.45;;;;;;;18.54;87.79;99142.56;6202623;23;20009;-69
2023/08/01 08:36:24;;;;;;;7.35;6.65;;;;;;;18.60;86.60;99103.88;6199517;23;20018;-69
2023/08/01 08:38:50;;;;;;;6.57;6.10;;;;;;;19.33;84.96;99117.84;6200743;23;20020;-70
2023/08/01 08:41:21;;;;;;;6.80;6.30;;;;;;;19.90;82.09;99098.81;6203611;23;20008;-69
2023/08/01 08:43:49;;;;;;;7.05;6.55;;;;;;;19.99;80.74;99069.47;6168331;23;20028;-72
2023/08/01 08:46:16;;;;;;;7.18;6.45;;;;;;;20.21;77.82;99014.50;6177558;23;20768;-69
2023/08/01 08:48:45;;;;;;;9.27;6.90;;;;;;;20.01;77.80;99008.88;6198270;23;20077;-70
2023/08/01 08:51:12;;;;;;;7.18;6.57;;;;;;;19.79;77.31;98978.66;6180794;23;20017;-73
2023/08/01 08:53:40;;;;;;;6.70;6.10;;;;;;;18.96;78.26;98904.00;6202180;23;20581;-69
2023/08/01 08:56:08;;;;;;;6.38;5.97;;;;;;;19.38;79.07;99029.53;6180667;23;20450;-69
2023/08/01 08:58:38;;;;;;;8.02;6.93;;;;;;;19.43;79.27;99019.19;6204620;23;20050;-69
2023/08/01 09:01:06;;;;;;;7.13;6.53;;;;;;;19.46;78.98;99032.13;6174405;23;20113;-69
2023/08/01 09:03:33;;;;;;;6.47;5.95;;;;;;;19.56;76.44;98976.81;6206624;23;20016;-69
2023/08/01 09:06:31;;;;;;;6.80;6.30;;;;;;;19.41;77.60;99003.41;6199774;23;20566;-69
2023/08/01 09:09:09;;;;;;;7.22;6.50;;;;;;;19.24;78.10;98992.03;6183890;23;20032;-70
2023/08/01 09:11:43;;;;;;;7.88;6.63;;;;;;;19.96;77.71;99067.97;6170497;23;20018;-69
2023/08/01 09:14:10;;;;;;;6.75;6.25;;;;;;;20.15;76.32;99010.72;6198728;23;20028;-70
2023/08/01 09:16:37;;;;;;;10.23;6.78;;;;;;;20.64;72.18;98956.84;6084870;23;20051;-69
2023/08/01 09:19:06;;;;;;;6.75;6.35;;;;;;;21.29;72.26;99019.06;6200834;23;20585;-69
2023/08/01 09:21:34;;;;;;;7.05;6.45;;;;;;;20.27;70.91;98860.06;6199628;23;20091;-69
2023/08/01 09:24:12;;;;;;;6.97;6.22;;;;;;;20.75;72.75;99016.84;6206311;23;20044;-69
2023/08/01 09:26:39;;;;;;;7.18;6.38;;;;;;;20.87;73.03;99025.19;6172673;23;20375;-69
2023/08/01 09:29:07;;;;;;;7.00;6.30;;;;;;;21.43;71.72;99014.72;6201723;23;20022;-69
2023/08/01 09:31:35;;;;;;;6.30;5.90;;;;;;;21.30;68.57;98905.16;6198810;23;20008;-70
2023/08/01 09:34:06;;;;;;;7.20;6.50;;;;;;;20.61;66.02;98705.88;6196699;23;20063;-69
2023/08/01 09:36:33;;;;;;;6.70;6.30;;;;;;;21.41;66.66;98863.75;6200007;23;20079;-69
2023/08/01 09:39:02;;;;;;;10.02;6.80;;;;;;;21.04;66.81;98837.25;6201606;23;20016;-69
2023/08/01 09:41:30;;;;;;;6.63;6.13;;;;;;;20.96;67.93;98880.03;6147426;23;20108;-69
2023/08/01 09:43:57;;;;;;;6.82;6.25;;;;;;;21.20;69.39;98939.34;6197074;23;20409;-70
2023/08/01 09:46:24;;;;;;;6.78;6.32;;;;;;;21.19;68.41;98917.19;6145792;23;20052;-69
2023/08/01 09:48:51;;;;;;;7.05;6.45;;;;;;;20.79;67.96;98868.00;6196649;23;20095;-69
2023/08/01 09:51:18;;;;;;;7.22;6.72;;;;;;;20.59;69.11;98860.66;6179590;23;20071;-69
2023/08/01 09:53:52;;;;;;;8.43;6.45;;;;;;;21.66;68.56;98976.28;6202716;23;20056;-69
2023/08/01 09:56:24;;;;;;;6.80;6.30;;;;;;;22.06;65.99;98933.81;6175571;23;20012;-69
2023/08/01 09:58:53;;;;;;;6.53;6.13;;;;;;;22.04;65.62;98914.50;6148543;23;20079;-69
2023/08/01 10:01:22;;;;;;;6.95;6.28;;;;;;;22.41;65.19;98925.75;6172422;23;20505;-69
2023/08/01 10:03:50;;;;;;;7.03;6.43;;;;;;;21.80;64.17;98833.84;6199654;23;20076;-69
2023/08/01 10:06:19;;;;;;;6.57;6.18;;;;;;;21.90;63.94;98860.19;6200965;23;20024;-69
2023/08/01 10:08:46;;;;;;;6.57;6.07;;;;;;;;;;6201261;23;20095;-68
2023/08/01 10:11:18;;;;;;;6.65;6.05;;;;;;;21.97;63.17;98844.16;6196793;23;20004;-71
2023/08/01 10:13:45;;;;;;;6.55;6.15;;;;;;;22.15;62.85;98855.16;6202279;23;20104;-69
2023/08/01 10:16:13;;;;;;;7.15;6.60;;;;;;;21.18;62.79;98744.78;6195547;23;20047;-70
2023/08/01 10:18:40;;;;;;;8.10;6.30;;;;;;;21.80;62.79;98830.34;6170930;23;20454;-73
2023/08/01 10:21:09;;;;;;;6.53;6.13;;;;;;;21.48;63.76;98848.66;6172381;23;20017;-68
2023/08/01 10:23:37;;;;;;;6.65;6.20;;;;;;;21.11;64.14;98807.97;6202726;23;20027;-69
2023/08/01 10:26:05;;;;;;;6.80;6.35;;;;;;;21.14;65.12;98905.44;6171510;23;20020;-69
2023/08/01 10:28:49;;;;;;;10.82;6.30;;;;;;;21.63;66.30;98980.19;6200904;23;20076;-69
2023/08/01 10:31:17;;;;;;;6.32;5.95;;;;;;;21.80;65.21;98947.84;6172906;23;20608;-69
2023/08/01 10:33:47;;;;;;;7.75;6.30;;;;;;;22.19;64.87;98997.16;6166939;23;20038;-71
2023/08/01 10:36:22;;;;;;;6.30;5.95;;;;;;;22.56;63.11;98936.31;6197604;23;20013;-70
2023/08/01 10:38:54;;;;;;;6.85;6.35;;;;;;;22.65;62.31;98927.06;6203525;23;20036;-69
2023/08/01 10:41:27;;;;;;;6.43;6.03;;;;;;;22.44;63.57;98936.06;6198239;23;20083;-70
2023/08/01 10:44:12;;;;;;;7.15;6.53;;;;;;;22.00;62.24;98862.47;6198828;23;20605;-69
2023/08/01 10:47:05;;;;;;;6.70;6.30;;;;;;;21.84;62.19;98856.44;6169643;23;20028;-69
2023/08/01 10:49:40;;;;;;;6.28;5.88;;;;;;;22.09;63.96;98952.94;6195046;23;20035;-69
2023/08/01 10:52:27;;;;;;;7.32;6.28;;;;;;;22.31;61.39;98904.75;6143340;23;20016;-68
2023/08/01 10:55:00;;;;;;;7.22;6.63;;;;;;;22.93;61.74;98985.78;6197973;23;20083;-69
2023/08/01 10:57:28;;;;;;;6.10;5.80;;;;;;;22.70;59.30;98861.25;6195684;23;20464;-69
2023/08/01 10:59:56;;;;;;;6.78;6.38;;;;;;;22.37;59.88;98852.34;6196848;23;20024;-69
2023/08/01 11:02:24;;;;;;;6.88;6.38;;;;;;;22.18;61.01;98915.38;6170884;23;20024;-69
2023/08/01 11:05:11;;;;;;;7.13;6.63;;;;;;;21.57;62.32;98892.03;6193818;23;20028;-70
2023/08/01 11:07:37;;;;;;;6.90;6.40;;;;;;;22.15;62.75;98996.75;6200436;23;20048;-69
2023/08/01 11:10:08;;;;;;;7.03;6.43;;;;;;;22.63;61.04;98966.56;6204559;22;20083;-69
2023/08/01 11:12:42;;;;;;;8.32;6.45;;;;;;;23.58;58.19;98948.59;6197954;23;20624;-69
2023/08/01 11:15:11;;;;;;;7.20;6.70;;;;;;;23.45;57.34;98874.47;6204018;23;20364;-69
2023/08/01 11:17:42;;;;;;;9.30;6.60;;;;;;;23.61;55.62;98857.13;6203493;23;20047;-69
2023/08/01 11:20:11;;;;;;;6.63;6.13;;;;;;;23.62;55.17;98853.41;6204670;23;20599;-69
2023/08/01 11:22:49;;;;;;;6.60;6.20;;;;;;;23.96;56.24;98947.94;6200920;23;20155;-69
2023/08/01 11:25:15;;;;;;;6.60;6.10;;;;;;;23.75;54.72;98868.63;6205053;23;20710;-69
2023/08/01 11:27:42;;;;;;;10.48;6.28;;;;;;;24.13;55.43;98983.16;6205662;23;20023;-69
2023/08/01 11:30:08;;;;;;;6.22;5.82;;;;;;;24.08;53.82;98911.44;6177343;23;20012;-69
2023/08/01 11:32:37;;;;;;;6.40;5.90;;;;;;;23.52;53.81;98916.47;6204596;23;20013;-69